Alex, Louisiana
Current Conditions -  °F | °C
As of 11:53 AM on Saturday 25 Oct 2014 (Local Time) from KAEX Reporting Station
Clear Clear  
Wind Chill: 75°   Ceiling: Unl
Heat Index: 75°   Visibility: 10mi
Dew Point: 55°   Wind: 0mph
Humidity: 50%   Direction: NA
Pressure: 30.16"   Gusts: NA
Location:  31.2081°N, 92.3683°W
Report Text: KAEX 251653Z 00000KT 10SM CLR 24/13 A3016 RMK AO2 SLP217 T02390128 $
Loading
Personal Weather Stations






























Interactive Weather Map New forecast layout! Learn more

10-Day Weather Forecast

Advertisements
Track Severe Weather on mobile